TAPAMKJS

Guest
Details From TAPA - Antigua - V C Bird Intl
To MKJS - Montego Bay Sangster Intl
Flight Number -
Tags Generated
Created
Modified
Stats Distance 925 nm / 1,713 km
Max Altitude 0 ft / 0 m
Waypoints 6
Social Downloads 3
Likes 0
Share VATSIM

Download

Looking for another format? Having issues loading an existing format? Contact us
Advertisement - Login to hide

Notes

Generated

Route

TAPA MACHE EBLIP CAY ALMUS MKJS

ID Type Via Altitude Latitude Longitude Leg Dist Tot Dist Heading (true) Name
O TAPA APT - 0 ft / 0 m 17.13024˚ -61.80367˚ - 0 nm - -
MACHE FIX - 0 ft / 0 m 17.66697˚ -65.94445˚ 239 nm 239 nm 278° / 277° -
EBLIP FIX - 0 ft / 0 m 17.98722˚ -69.74139˚ 217 nm 457 nm 276° / 274° -
CAY NDB - 0 ft / 0 m 18.26734˚ -73.78298˚ 231 nm 688 nm 275° / 274° CAYES NDB
ALMUS FIX - 0 ft / 0 m 18.47833˚ -77.57000˚ 216 nm 904 nm 274° / 273° -
O MKJS APT - 0 ft / 0 m 18.49873˚ -77.92482˚ 20 nm 925 nm 274° / 273° -

Altitude Profile

Advertisement - Login to hide

Weather


0- 5 10 15 20 25 30 35+ Temperature / ° C

Clouds and Precipitation
Forecast for 2017-12-12 12:00 UTC. Updated 2 hours ago

Ground ~20,000 ft ~40,000 ft Winds

TAPA

Details ICAO TAPA (ANU)
Name Antigua - V C Bird Intl
Region Antigua and Barbuda
Timezone America/Antigua (UTC-4.0)
Stats Elevation 62 ft / 19 m (AMSL)
Location 17.136737° -61.792662°
Runways 1
Magnetic Variation 14.766° W

METAR

TAPA 121000Z 25004KT 9999 SCT018 BKN038 22/21 Q1013 NOSIG

Decode

TAF

Not found

Departure Runways

ID Width Length Bearing (true) Bearing (mag) Surface Threshold Offset Overrun Length
07 148 ft / 45 m 9,022 ft / 2,750 m 58.28° 73.05° Asphalt 656 ft / 200 m 0 ft / 0 m
25 148 ft / 45 m 9,022 ft / 2,750 m 238.29° 253.06° Asphalt 0 ft / 0 m 0 ft / 0 m

MKJS

Details ICAO MKJS (MBJ)
Name Sangster Intl
Region Jamaica
Timezone America/Jamaica (UTC-5.0)
Stats Elevation 6 ft / 2 m (AMSL)
Location 18.503549° -77.913698°
Runways 1
Magnetic Variation 6.955° W

METAR

MKJS 121000Z 05012KT 5000 -RA VCSH SCT022 BKN048 24/23 Q1013

Decode

TAF

TAF MKJS 120515Z 1206/1306 03020KT 9999 SCT020 TEMPO 1214/1218 4000 SHRA BKN018 PROB40 TEMPO 1300/1304 8000 SHRA BKN020

Decode

Destination Runways

ID Width Length Bearing (true) Bearing (mag) Surface Threshold Offset Overrun Length
07 161 ft / 49 m 8,495 ft / 2,589 m 65.37° 72.32° Asphalt 220 ft / 67 m 312 ft / 95 m
25 161 ft / 49 m 8,495 ft / 2,589 m 245.37° 252.32° Asphalt 577 ft / 176 m 200 ft / 61 m

Approach Navaids

Runway Type Ident Frequency Range Bearing (true) Bearing (mag) Slope Elevation
07 Localiser ISIA 109.50 MHz 18 nm / 33 km 65.41° 72.36° - 4 ft / 1 m (AMSL)
07 Glidescope ISIA 109.50 MHz 10 nm / 19 km 65.37° 72.33° 3.00° 4 ft / 1 m (AMSL)